createdAt,value
2022-11-28T00:01:25.487Z,5.70
2022-11-28T00:03:52.383Z,5.70
2022-11-28T00:06:19.613Z,5.70
2022-11-28T00:08:46.734Z,5.70
2022-11-28T00:11:15.715Z,5.70
2022-11-28T00:13:43.062Z,5.70
2022-11-28T00:16:14.718Z,5.70
2022-11-28T00:18:41.869Z,5.70
2022-11-28T00:21:11.628Z,5.70
2022-11-28T00:23:39.188Z,5.70
2022-11-28T00:26:15.071Z,5.70
2022-11-28T00:28:41.850Z,5.60
2022-11-28T00:31:16.374Z,5.60
2022-11-28T00:33:43.484Z,5.60
2022-11-28T00:36:11.107Z,5.60
2022-11-28T00:38:38.099Z,5.60
2022-11-28T00:41:09.259Z,5.60
2022-11-28T00:43:36.210Z,5.60
2022-11-28T00:46:03.979Z,5.70
2022-11-28T00:48:32.989Z,5.60
2022-11-28T00:51:23.978Z,5.60
2022-11-28T00:53:52.903Z,5.60
2022-11-28T00:56:22.894Z,5.60
2022-11-28T00:58:50.016Z,5.60
2022-11-28T01:01:18.930Z,5.60
2022-11-28T01:03:47.540Z,5.60
2022-11-28T01:06:22.492Z,5.60
2022-11-28T01:08:49.336Z,5.60
2022-11-28T01:11:16.163Z,5.60
2022-11-28T01:13:42.907Z,5.60
2022-11-28T01:16:10.876Z,5.60
2022-11-28T01:18:38.583Z,5.60
2022-11-28T01:21:06.821Z,5.60
2022-11-28T01:23:34.668Z,5.50
2022-11-28T01:26:02.704Z,5.60
2022-11-28T01:28:29.515Z,5.60
2022-11-28T01:30:56.429Z,5.60
2022-11-28T01:33:23.277Z,5.60
2022-11-28T01:35:57.636Z,5.60
2022-11-28T01:38:24.711Z,5.50
2022-11-28T01:40:51.861Z,5.50
2022-11-28T01:43:18.913Z,5.50
2022-11-28T01:45:46.065Z,5.50
2022-11-28T01:48:17.404Z,5.40
2022-11-28T01:50:45.308Z,5.40
2022-11-28T01:53:13.420Z,5.40
2022-11-28T01:55:52.502Z,5.30
2022-11-28T01:58:19.381Z,5.30
2022-11-28T02:00:46.928Z,5.30
2022-11-28T02:03:21.687Z,5.30
2022-11-28T02:05:50.565Z,5.30
2022-11-28T02:08:18.089Z,5.30
2022-11-28T02:11:08.083Z,5.30
2022-11-28T02:13:56.395Z,5.20
2022-11-28T02:16:30.131Z,5.20
2022-11-28T02:19:15.588Z,5.20
2022-11-28T02:21:51.583Z,5.20
2022-11-28T02:24:50.459Z,5.20
2022-11-28T02:27:26.146Z,5.20
2022-11-28T02:30:18.537Z,5.10
2022-11-28T02:32:53.895Z,5.10
2022-11-28T02:35:25.386Z,5.10
2022-11-28T02:38:04.164Z,5.10
2022-11-28T02:40:49.617Z,5.10
2022-11-28T02:43:22.098Z,5.10
2022-11-28T02:46:07.174Z,5.10
2022-11-28T02:49:01.709Z,5.10
2022-11-28T02:51:34.321Z,5.10
2022-11-28T02:54:03.670Z,5.00
2022-11-28T02:56:30.856Z,5.10
2022-11-28T02:58:57.620Z,5.10
2022-11-28T03:01:37.808Z,5.00
2022-11-28T03:04:37.688Z,5.10
2022-11-28T03:07:13.700Z,5.00
2022-11-28T03:10:10.624Z,5.00
2022-11-28T03:12:37.357Z,5.00
2022-11-28T03:15:07.525Z,5.00
2022-11-28T03:17:48.382Z,5.00
2022-11-28T03:20:18.148Z,5.00
2022-11-28T03:23:08.541Z,5.00
2022-11-28T03:25:45.971Z,5.00
2022-11-28T03:28:28.754Z,5.00
2022-11-28T03:31:08.319Z,5.00
2022-11-28T03:33:40.720Z,4.90
2022-11-28T03:36:16.745Z,4.90
2022-11-28T03:38:48.340Z,4.90
2022-11-28T03:41:20.087Z,4.90
2022-11-28T03:43:52.673Z,4.90
2022-11-28T03:46:23.193Z,4.90
2022-11-28T03:48:55.463Z,4.90
2022-11-28T03:51:36.466Z,4.90
2022-11-28T03:54:21.438Z,4.90
2022-11-28T03:57:06.638Z,4.90
2022-11-28T03:59:35.372Z,4.90
2022-11-28T04:02:27.159Z,4.90
2022-11-28T04:05:16.874Z,4.90
2022-11-28T04:07:58.313Z,4.90
2022-11-28T04:10:32.170Z,4.90
2022-11-28T04:13:23.527Z,4.90
2022-11-28T04:15:56.204Z,4.90
2022-11-28T04:18:28.605Z,4.90
2022-11-28T04:20:59.611Z,4.90
2022-11-28T04:23:28.022Z,4.90
2022-11-28T04:26:03.018Z,4.90
2022-11-28T04:28:33.145Z,4.90
2022-11-28T04:31:02.875Z,4.90
2022-11-28T04:33:33.139Z,4.90
2022-11-28T04:36:00.937Z,4.90
2022-11-28T04:38:29.822Z,4.90
2022-11-28T04:41:16.700Z,4.90
2022-11-28T04:43:52.394Z,4.90
2022-11-28T04:46:23.565Z,4.90
2022-11-28T04:48:50.702Z,4.90
2022-11-28T04:51:26.205Z,4.80
2022-11-28T04:53:56.025Z,4.80
2022-11-28T04:56:29.000Z,4.80
2022-11-28T04:58:56.064Z,4.80
2022-11-28T05:01:27.416Z,4.80
2022-11-28T05:03:54.913Z,4.80
2022-11-28T05:06:33.873Z,4.80
2022-11-28T05:09:00.943Z,4.80
2022-11-28T05:11:28.455Z,4.90
2022-11-28T05:13:55.676Z,5.00
2022-11-28T05:16:23.073Z,4.70
2022-11-28T05:18:50.095Z,4.80
2022-11-28T05:21:16.881Z,4.80
2022-11-28T05:23:44.989Z,4.80
2022-11-28T05:26:18.452Z,4.70
2022-11-28T05:28:50.723Z,4.70
2022-11-28T05:31:20.481Z,4.80
2022-11-28T05:33:47.346Z,4.70
2022-11-28T05:36:14.982Z,4.80
2022-11-28T05:38:43.005Z,4.70
2022-11-28T05:41:10.218Z,4.70
2022-11-28T05:43:37.316Z,4.70
2022-11-28T05:46:06.878Z,4.70
2022-11-28T05:48:33.681Z,4.70
2022-11-28T05:51:00.445Z,4.70
2022-11-28T05:53:27.251Z,4.70
2022-11-28T05:55:54.042Z,4.60
2022-11-28T05:58:20.786Z,4.70
2022-11-28T06:00:47.574Z,4.60
2022-11-28T06:03:14.419Z,4.60
2022-11-28T06:05:43.952Z,4.60
2022-11-28T06:08:13.494Z,4.60
2022-11-28T06:10:40.824Z,4.60
2022-11-28T06:13:07.825Z,4.60
2022-11-28T06:15:38.125Z,4.60
2022-11-28T06:18:05.456Z,4.60
2022-11-28T06:20:34.334Z,4.60
2022-11-28T06:23:01.078Z,4.60
2022-11-28T06:25:27.935Z,4.50
2022-11-28T06:27:54.681Z,4.50
2022-11-28T06:30:21.442Z,4.60
2022-11-28T06:32:48.205Z,4.60
2022-11-28T06:35:15.040Z,4.50
2022-11-28T06:37:41.879Z,4.60
2022-11-28T06:40:08.960Z,4.60
2022-11-28T06:42:36.747Z,4.60
2022-11-28T06:45:04.822Z,4.60
2022-11-28T06:47:31.887Z,4.50
2022-11-28T06:49:58.632Z,4.50
2022-11-28T06:52:25.376Z,4.50
2022-11-28T06:54:52.167Z,4.50
2022-11-28T06:57:19.154Z,4.50
2022-11-28T06:59:45.887Z,4.50
2022-11-28T07:02:12.683Z,4.50
2022-11-28T07:04:39.597Z,4.60
2022-11-28T07:07:06.396Z,4.60
2022-11-28T07:09:33.151Z,4.50
2022-11-28T07:11:59.937Z,4.60
2022-11-28T07:14:26.707Z,4.60
2022-11-28T07:16:53.564Z,4.60
2022-11-28T07:19:20.358Z,4.50
2022-11-28T07:21:47.107Z,4.50
2022-11-28T07:24:13.856Z,4.60
2022-11-28T07:26:40.699Z,4.60
2022-11-28T07:29:07.551Z,4.60
2022-11-28T07:31:34.344Z,4.60
2022-11-28T07:34:02.534Z,4.60
2022-11-28T07:36:29.397Z,4.60
2022-11-28T07:39:00.925Z,4.60
2022-11-28T07:41:28.130Z,4.60
2022-11-28T07:44:00.597Z,4.60
2022-11-28T07:46:30.157Z,4.60
2022-11-28T07:48:57.115Z,4.60
2022-11-28T07:51:27.016Z,4.60
2022-11-28T07:53:54.652Z,4.60
2022-11-28T07:56:25.613Z,4.60
2022-11-28T07:58:52.560Z,4.60
2022-11-28T08:01:25.018Z,4.70
2022-11-28T08:03:52.829Z,4.60
2022-11-28T08:06:22.111Z,4.60
2022-11-28T08:08:49.635Z,4.60
2022-11-28T08:11:17.818Z,4.70
2022-11-28T08:13:45.075Z,4.70
2022-11-28T08:16:18.471Z,4.70
2022-11-28T08:18:46.317Z,4.70
2022-11-28T08:21:15.627Z,4.70
2022-11-28T08:23:42.980Z,4.70
2022-11-28T08:26:11.486Z,4.80
2022-11-28T08:28:38.249Z,4.80
2022-11-28T08:31:19.614Z,4.80
2022-11-28T08:33:48.699Z,4.80
2022-11-28T08:36:17.078Z,4.80
2022-11-28T08:41:30.624Z,4.80
2022-11-28T08:46:44.244Z,4.80
2022-11-28T08:49:10.985Z,4.80
2022-11-28T08:51:37.729Z,4.90
2022-11-28T08:54:04.647Z,4.90
2022-11-28T08:56:31.462Z,5.00
2022-11-28T09:01:44.977Z,5.00
2022-11-28T09:06:58.537Z,5.00
2022-11-28T09:09:27.128Z,5.10
2022-11-28T09:11:56.941Z,5.10
2022-11-28T09:14:26.711Z,5.10
2022-11-28T09:16:53.547Z,5.20
2022-11-28T09:19:20.351Z,5.20
2022-11-28T09:21:47.094Z,5.10
2022-11-28T09:24:13.875Z,5.10
2022-11-28T09:26:40.682Z,5.10
2022-11-28T09:29:07.422Z,5.10
2022-11-28T09:31:34.312Z,5.20
2022-11-28T09:36:51.349Z,5.20
2022-11-28T09:42:09.133Z,5.20
2022-11-28T09:44:41.032Z,5.30
2022-11-28T09:47:19.353Z,5.30
2022-11-28T09:50:10.900Z,5.40
2022-11-28T09:52:53.476Z,5.40
2022-11-28T09:55:40.411Z,5.40
2022-11-28T10:01:25.456Z,5.50
2022-11-28T10:04:22.659Z,5.50
2022-11-28T10:07:10.205Z,5.50
2022-11-28T10:10:15.101Z,5.50
2022-11-28T10:16:46.051Z,5.50
2022-11-28T10:19:38.615Z,5.60
2022-11-28T10:24:57.839Z,5.70
2022-11-28T10:30:26.844Z,5.70
2022-11-28T10:33:01.945Z,5.70
2022-11-28T10:35:39.379Z,5.70
2022-11-28T10:38:14.569Z,5.60
2022-11-28T10:40:59.953Z,5.60
2022-11-28T10:43:51.507Z,5.80
2022-11-28T10:46:29.915Z,5.70
2022-11-28T10:49:19.905Z,5.70
2022-11-28T10:52:27.630Z,5.70
2022-11-28T10:55:00.102Z,5.70
2022-11-28T10:57:48.111Z,5.70
2022-11-28T11:00:19.737Z,5.90
2022-11-28T11:02:57.520Z,6.00
2022-11-28T11:05:33.180Z,6.00
2022-11-28T11:08:04.401Z,6.10
2022-11-28T11:13:25.861Z,6.10
2022-11-28T11:18:52.823Z,6.10
2022-11-28T11:21:21.126Z,6.10
2022-11-28T11:23:49.255Z,6.00
2022-11-28T11:26:27.713Z,6.00
2022-11-28T11:28:55.059Z,6.00
2022-11-28T11:31:23.433Z,5.90
2022-11-28T11:34:18.882Z,5.90
2022-11-28T11:36:46.099Z,6.10
2022-11-28T11:39:12.791Z,6.00
2022-11-28T11:41:44.893Z,5.90
2022-11-28T11:44:14.326Z,5.80
2022-11-28T11:46:56.131Z,6.00
2022-11-28T11:49:44.288Z,5.90
2022-11-28T11:52:26.370Z,5.90
2022-11-28T11:54:55.896Z,5.80
2022-11-28T11:57:34.174Z,5.90
2022-11-28T12:00:10.780Z,5.80
2022-11-28T12:02:49.390Z,5.80
2022-11-28T12:05:23.484Z,5.90
2022-11-28T12:07:54.552Z,5.80
2022-11-28T12:10:24.864Z,5.70
2022-11-28T12:15:52.298Z,5.70
2022-11-28T12:18:36.070Z,5.70
2022-11-28T12:24:11.533Z,5.60
2022-11-28T12:27:03.758Z,5.60
2022-11-28T12:29:37.698Z,5.60
2022-11-28T12:32:35.146Z,5.60
2022-11-28T12:35:35.930Z,5.50
2022-11-28T12:38:23.746Z,5.60
2022-11-28T12:40:56.392Z,5.50
2022-11-28T12:43:28.941Z,5.50
2022-11-28T12:45:59.988Z,5.50
2022-11-28T12:52:17.722Z,5.50
2022-11-28T12:54:44.443Z,5.40
2022-11-28T13:00:26.220Z,5.50
2022-11-28T13:03:11.666Z,5.50
2022-11-28T13:06:02.734Z,5.40
2022-11-28T13:08:48.496Z,5.40
2022-11-28T13:11:36.881Z,5.40
2022-11-28T13:17:18.278Z,5.40
2022-11-28T13:19:50.839Z,5.40
2022-11-28T13:22:48.733Z,5.40
2022-11-28T13:25:18.546Z,5.30
2022-11-28T13:28:04.690Z,5.30
2022-11-28T13:30:42.541Z,5.30
2022-11-28T13:33:50.323Z,5.30
2022-11-28T13:39:23.989Z,5.30
2022-11-28T13:42:58.889Z,5.30
2022-11-28T13:45:12.074Z,5.20
2022-11-28T13:47:38.863Z,5.20
2022-11-28T13:53:24.679Z,5.20
2022-11-28T13:56:21.055Z,5.10
2022-11-28T13:58:55.954Z,5.10
2022-11-28T14:01:28.527Z,5.10
2022-11-28T14:03:58.335Z,5.10
2022-11-28T14:06:44.542Z,5.10
2022-11-28T14:09:14.374Z,5.10
2022-11-28T14:12:22.946Z,5.10
2022-11-28T14:14:52.511Z,5.00
2022-11-28T14:17:25.443Z,5.00
2022-11-28T14:26:32.740Z,5.00
2022-11-28T14:29:00.122Z,5.00
2022-11-28T14:34:43.334Z,5.00
2022-11-28T14:37:22.231Z,5.00
2022-11-28T14:39:51.212Z,5.00
2022-11-28T14:44:57.443Z,5.00
2022-11-28T14:47:24.168Z,4.90
2022-11-28T14:50:09.151Z,5.00
2022-11-28T14:52:39.854Z,5.00
2022-11-28T14:55:10.307Z,5.30
2022-11-28T14:57:55.511Z,5.00
2022-11-28T15:00:37.491Z,4.90
2022-11-28T15:03:31.290Z,4.90
2022-11-28T15:06:08.754Z,4.90
2022-11-28T15:12:08.513Z,5.00
2022-11-28T15:14:35.873Z,5.00
2022-11-28T15:19:48.693Z,4.90
2022-11-28T15:22:39.618Z,4.90
2022-11-28T15:25:18.277Z,4.90
2022-11-28T15:27:45.117Z,4.90
2022-11-28T15:30:19.704Z,4.90
2022-11-28T15:32:47.595Z,4.80
2022-11-28T15:35:17.123Z,4.90
2022-11-28T15:37:54.100Z,4.90
2022-11-28T15:40:33.118Z,4.80
2022-11-28T15:43:01.358Z,4.80
2022-11-28T15:48:39.784Z,4.80
2022-11-28T15:51:08.067Z,4.80
2022-11-28T15:53:41.173Z,4.80
2022-11-28T15:56:15.632Z,4.80
2022-11-28T15:58:43.978Z,4.80
2022-11-28T16:04:17.550Z,4.80
2022-11-28T16:06:53.051Z,4.80
2022-11-28T16:09:19.763Z,4.80
2022-11-28T16:11:49.722Z,4.80
2022-11-28T16:14:24.060Z,4.80
2022-11-28T16:16:50.977Z,4.80
2022-11-28T16:19:29.983Z,4.90
2022-11-28T16:21:58.178Z,4.80
2022-11-28T16:24:27.076Z,4.80
2022-11-28T16:26:56.964Z,4.80
2022-11-28T16:29:24.128Z,4.80
2022-11-28T16:31:50.977Z,4.80
2022-11-28T16:34:44.862Z,4.80
2022-11-28T16:37:12.430Z,4.80
2022-11-28T16:39:39.456Z,4.80
2022-11-28T16:42:14.796Z,4.70
2022-11-28T16:47:31.290Z,4.80
2022-11-28T16:50:15.357Z,4.70
2022-11-28T16:52:49.522Z,4.70
2022-11-28T16:55:31.597Z,4.80
2022-11-28T16:58:14.057Z,4.70
2022-11-28T17:00:44.467Z,4.80
2022-11-28T17:06:35.927Z,4.80
2022-11-28T17:09:05.466Z,4.80
2022-11-28T17:11:36.833Z,4.80
2022-11-28T17:14:10.113Z,4.80
2022-11-28T17:16:41.198Z,4.80
2022-11-28T17:19:08.467Z,4.80
2022-11-28T17:24:34.449Z,4.80
2022-11-28T17:29:48.202Z,4.80
2022-11-28T17:35:02.182Z,4.80
2022-11-28T17:40:15.978Z,4.70
2022-11-28T17:42:42.759Z,4.80
2022-11-28T17:45:15.870Z,4.80
2022-11-28T17:47:42.658Z,4.70
2022-11-28T17:52:56.472Z,4.70
2022-11-28T17:58:19.220Z,4.70
2022-11-28T18:00:47.424Z,4.70
2022-11-28T18:03:15.496Z,4.70
2022-11-28T18:05:44.717Z,4.70
2022-11-28T18:08:22.072Z,4.70
2022-11-28T18:10:49.611Z,4.60
2022-11-28T18:16:03.514Z,4.70
2022-11-28T18:18:30.850Z,4.60
2022-11-28T18:20:57.852Z,4.60
2022-11-28T18:23:24.684Z,4.60
2022-11-28T18:25:51.469Z,4.70
2022-11-28T18:28:19.176Z,4.60
2022-11-28T18:30:46.823Z,4.60
2022-11-28T18:33:15.094Z,4.60
2022-11-28T18:35:42.328Z,4.60
2022-11-28T18:38:09.446Z,4.60
2022-11-28T18:40:36.708Z,4.60
2022-11-28T18:43:04.139Z,4.60
2022-11-28T18:45:32.215Z,4.60
2022-11-28T18:48:00.531Z,4.60
2022-11-28T18:50:27.714Z,4.60
2022-11-28T18:52:54.450Z,4.60
2022-11-28T18:55:22.641Z,4.60
2022-11-28T18:57:51.620Z,4.60
2022-11-28T19:00:19.003Z,4.60
2022-11-28T19:02:45.844Z,4.60
2022-11-28T19:05:12.613Z,4.60
2022-11-28T19:07:39.416Z,4.50
2022-11-28T19:10:06.826Z,4.60
2022-11-28T19:12:33.613Z,4.60
2022-11-28T19:15:02.483Z,4.50
2022-11-28T19:20:16.412Z,4.50
2022-11-28T19:22:43.215Z,4.60
2022-11-28T19:25:10.047Z,4.50
2022-11-28T19:27:36.830Z,4.50
2022-11-28T19:30:04.667Z,4.40
2022-11-28T19:32:31.447Z,4.50
2022-11-28T19:34:58.225Z,4.40
2022-11-28T19:37:24.992Z,4.40
2022-11-28T19:39:51.794Z,4.40
2022-11-28T19:42:18.523Z,4.40
2022-11-28T19:44:45.341Z,4.50
2022-11-28T19:47:12.173Z,4.40
2022-11-28T19:49:38.995Z,4.40
2022-11-28T19:52:05.798Z,4.40
2022-11-28T19:54:33.955Z,4.40
2022-11-28T19:57:00.755Z,4.40
2022-11-28T19:59:27.481Z,4.40
2022-11-28T20:01:54.264Z,4.40
2022-11-28T20:04:21.022Z,4.40
2022-11-28T20:06:47.771Z,4.30
2022-11-28T20:09:14.645Z,4.30
2022-11-28T20:11:43.304Z,4.30
2022-11-28T20:14:17.064Z,4.30
2022-11-28T20:16:44.748Z,4.30
2022-11-28T20:19:12.804Z,4.20
2022-11-28T20:21:39.626Z,4.20
2022-11-28T20:24:07.204Z,4.30
2022-11-28T20:26:37.590Z,4.30
2022-11-28T20:31:53.582Z,4.30
2022-11-28T20:37:07.103Z,4.20
2022-11-28T20:39:33.854Z,4.20
2022-11-28T20:42:00.714Z,4.10
2022-11-28T20:44:27.515Z,4.10
2022-11-28T20:49:41.036Z,4.20
2022-11-28T20:52:07.893Z,4.10
2022-11-28T20:54:34.682Z,4.10
2022-11-28T20:57:31.233Z,4.10
2022-11-28T20:59:48.187Z,4.10
2022-11-28T21:02:15.068Z,4.10
2022-11-28T21:04:41.818Z,4.10
2022-11-28T21:07:08.946Z,4.10
2022-11-28T21:09:35.741Z,4.10
2022-11-28T21:12:02.476Z,4.00
2022-11-28T21:14:29.855Z,4.00
2022-11-28T21:16:57.889Z,4.00
2022-11-28T21:19:24.667Z,3.90
2022-11-28T21:21:51.451Z,4.00
2022-11-28T21:24:18.231Z,4.00
2022-11-28T21:26:51.051Z,4.10
2022-11-28T21:29:20.226Z,4.00
2022-11-28T21:31:47.256Z,4.00
2022-11-28T21:34:15.204Z,4.00
2022-11-28T21:36:42.236Z,4.00
2022-11-28T21:39:16.387Z,4.00
2022-11-28T21:44:29.855Z,4.00
2022-11-28T21:49:43.551Z,4.00
2022-11-28T21:52:10.441Z,3.90
2022-11-28T21:54:37.240Z,3.90
2022-11-28T21:57:04.065Z,3.90
2022-11-28T21:59:31.904Z,3.90
2022-11-28T22:01:58.815Z,3.90
2022-11-28T22:07:12.300Z,3.90
2022-11-28T22:12:25.691Z,3.90
2022-11-28T22:17:39.535Z,3.90
2022-11-28T22:22:56.630Z,3.90
2022-11-28T22:25:23.398Z,3.80
2022-11-28T22:27:50.141Z,3.80
2022-11-28T22:30:17.139Z,3.80
2022-11-28T22:32:43.920Z,3.80
2022-11-28T22:35:10.714Z,3.80
2022-11-28T22:37:37.525Z,3.80
2022-11-28T22:42:55.664Z,3.80
2022-11-28T22:48:09.368Z,3.70
2022-11-28T22:50:40.302Z,3.70
2022-11-28T22:53:07.143Z,3.70
2022-11-28T22:55:35.209Z,3.70
2022-11-28T22:58:01.980Z,3.70
2022-11-28T23:00:28.725Z,3.70
2022-11-28T23:02:55.533Z,3.70
2022-11-28T23:08:09.085Z,3.70
2022-11-28T23:13:24.508Z,3.70
2022-11-28T23:15:52.938Z,3.70
2022-11-28T23:18:19.951Z,3.70
2022-11-28T23:20:46.716Z,3.70
2022-11-28T23:23:13.489Z,3.70
2022-11-28T23:25:40.285Z,3.70
2022-11-28T23:28:07.139Z,3.70
2022-11-28T23:30:33.951Z,3.70
2022-11-28T23:33:00.699Z,3.70
2022-11-28T23:35:28.207Z,3.50
2022-11-28T23:37:54.888Z,3.70
2022-11-28T23:40:21.674Z,3.60
2022-11-28T23:42:48.539Z,3.70
2022-11-28T23:45:15.376Z,3.70
2022-11-28T23:47:42.101Z,3.70
2022-11-28T23:50:09.168Z,3.70
2022-11-28T23:52:35.916Z,3.70
2022-11-28T23:55:02.657Z,3.70
2022-11-28T23:57:29.425Z,3.70
2022-11-28T23:59:56.186Z,3.70
